createdAt,value
2023-05-02T00:01:18.935Z,10.19
2023-05-02T00:03:45.682Z,10.21
2023-05-02T00:06:12.777Z,10.22
2023-05-02T00:08:39.551Z,10.22
2023-05-02T00:11:06.244Z,10.23
2023-05-02T00:13:32.934Z,10.24
2023-05-02T00:15:59.573Z,10.24
2023-05-02T00:18:26.234Z,10.26
2023-05-02T00:20:52.885Z,10.26
2023-05-02T00:23:19.639Z,10.27
2023-05-02T00:25:48.660Z,10.29
2023-05-02T00:28:15.172Z,10.32
2023-05-02T00:30:45.436Z,10.31
2023-05-02T00:33:13.434Z,10.31
2023-05-02T00:35:41.701Z,10.32
2023-05-02T00:38:08.314Z,10.32
2023-05-02T00:40:48.867Z,10.36
2023-05-02T00:43:15.945Z,10.37
2023-05-02T00:45:44.241Z,10.35
2023-05-02T00:48:11.378Z,10.35
2023-05-02T00:50:40.583Z,10.36
2023-05-02T00:53:08.322Z,10.36
2023-05-02T00:55:35.007Z,10.36
2023-05-02T00:58:04.737Z,10.36
2023-05-02T01:00:43.432Z,10.34
2023-05-02T01:03:20.468Z,10.33
2023-05-02T01:06:11.627Z,10.29
2023-05-02T01:08:49.271Z,10.26
2023-05-02T01:11:46.600Z,10.29
2023-05-02T01:14:15.123Z,10.27
2023-05-02T01:16:45.837Z,10.28
2023-05-02T01:19:36.468Z,10.29
2023-05-02T01:22:06.612Z,10.22
2023-05-02T01:24:40.431Z,10.15
2023-05-02T01:27:14.304Z,10.05
2023-05-02T01:29:43.242Z,9.94
2023-05-02T01:32:12.754Z,9.91
2023-05-02T01:34:41.774Z,9.89
2023-05-02T01:37:11.145Z,9.89
2023-05-02T01:39:40.094Z,9.89
2023-05-02T01:42:07.052Z,9.90
2023-05-02T01:44:36.066Z,9.88
2023-05-02T01:47:05.592Z,9.85
2023-05-02T01:49:34.906Z,9.87
2023-05-02T01:52:08.364Z,9.85
2023-05-02T01:54:37.386Z,9.82
2023-05-02T01:57:07.043Z,9.81
2023-05-02T01:59:35.497Z,9.80
2023-05-02T02:02:02.931Z,9.72
2023-05-02T02:04:32.854Z,9.62
2023-05-02T02:07:03.650Z,9.62
2023-05-02T02:09:31.439Z,9.61
2023-05-02T02:12:06.223Z,9.60
2023-05-02T02:14:38.583Z,9.59
2023-05-02T02:17:30.118Z,9.56
2023-05-02T02:20:03.549Z,9.54
2023-05-02T02:22:36.978Z,9.53
2023-05-02T02:25:06.839Z,9.56
2023-05-02T02:27:33.764Z,9.55
2023-05-02T02:30:03.694Z,9.54
2023-05-02T02:32:30.650Z,9.54
2023-05-02T02:34:59.066Z,9.55
2023-05-02T02:37:32.724Z,9.53
2023-05-02T02:40:09.497Z,9.53
2023-05-02T02:42:48.576Z,9.48
2023-05-02T02:45:36.751Z,9.46
2023-05-02T02:48:41.838Z,9.45
2023-05-02T02:51:15.006Z,9.45
2023-05-02T02:54:23.068Z,9.43
2023-05-02T02:57:18.590Z,9.43
2023-05-02T03:00:28.408Z,9.41
2023-05-02T03:02:56.943Z,9.38
2023-05-02T03:05:24.412Z,9.35
2023-05-02T03:07:51.541Z,9.33
2023-05-02T03:10:18.148Z,9.33
2023-05-02T03:12:44.878Z,9.34
2023-05-02T03:15:24.322Z,9.34
2023-05-02T03:17:51.063Z,9.33
2023-05-02T03:20:17.975Z,9.36
2023-05-02T03:22:44.586Z,9.36
2023-05-02T03:25:11.230Z,9.35
2023-05-02T03:27:38.172Z,9.37
2023-05-02T03:30:08.522Z,9.32
2023-05-02T03:32:35.258Z,9.31
2023-05-02T03:35:01.962Z,9.28
2023-05-02T03:37:28.642Z,9.26
2023-05-02T03:39:55.675Z,9.24
2023-05-02T03:42:22.260Z,9.22
2023-05-02T03:44:52.771Z,9.20
2023-05-02T03:47:19.786Z,9.20
2023-05-02T03:49:46.836Z,9.20
2023-05-02T03:52:13.625Z,9.20
2023-05-02T03:54:43.878Z,9.19
2023-05-02T03:57:10.743Z,9.17
2023-05-02T03:59:41.646Z,9.13
2023-05-02T04:02:08.793Z,9.11
2023-05-02T04:04:35.705Z,9.07
2023-05-02T04:07:07.964Z,9.06
2023-05-02T04:09:34.613Z,9.04
2023-05-02T04:12:01.611Z,9.02
2023-05-02T04:14:28.354Z,9.03
2023-05-02T04:16:55.190Z,8.99
2023-05-02T04:19:22.284Z,8.96
2023-05-02T04:21:48.934Z,8.92
2023-05-02T04:24:16.086Z,8.90
2023-05-02T04:26:45.826Z,8.88
2023-05-02T04:29:13.533Z,8.85
2023-05-02T04:31:40.448Z,8.87
2023-05-02T04:34:07.562Z,8.90
2023-05-02T04:36:34.868Z,8.92
2023-05-02T04:39:01.385Z,8.93
2023-05-02T04:41:27.987Z,8.92
2023-05-02T04:43:57.442Z,8.84
2023-05-02T04:46:24.116Z,8.78
2023-05-02T04:48:51.120Z,8.68
2023-05-02T04:51:17.833Z,8.59
2023-05-02T04:53:44.494Z,8.54
2023-05-02T04:56:11.608Z,8.49
2023-05-02T04:58:38.378Z,8.50
2023-05-02T05:01:04.992Z,8.50
2023-05-02T05:03:33.367Z,8.51
2023-05-02T05:06:00.172Z,8.52
2023-05-02T05:08:27.549Z,8.54
2023-05-02T05:10:54.257Z,8.55
2023-05-02T05:13:21.080Z,8.57
2023-05-02T05:15:48.102Z,8.57
2023-05-02T05:18:15.357Z,8.58
2023-05-02T05:20:42.181Z,8.59
2023-05-02T05:23:08.895Z,8.58
2023-05-02T05:25:35.614Z,8.59
2023-05-02T05:28:02.214Z,8.60
2023-05-02T05:30:30.840Z,8.61
2023-05-02T05:32:58.816Z,8.58
2023-05-02T05:35:26.448Z,8.49
2023-05-02T05:37:53.796Z,8.39
2023-05-02T05:40:21.378Z,8.34
2023-05-02T05:42:48.190Z,8.30
2023-05-02T05:45:17.072Z,8.28
2023-05-02T05:47:43.737Z,8.32
2023-05-02T05:50:11.259Z,8.37
2023-05-02T05:52:38.076Z,8.39
2023-05-02T05:55:05.254Z,8.45
2023-05-02T05:57:32.156Z,8.41
2023-05-02T05:59:58.964Z,8.47
2023-05-02T06:02:26.372Z,8.55
2023-05-02T06:04:52.992Z,8.63
2023-05-02T06:07:19.484Z,8.67
2023-05-02T06:09:45.901Z,8.68
2023-05-02T06:12:12.370Z,8.74
2023-05-02T06:14:38.827Z,8.83
2023-05-02T06:17:05.327Z,8.87
2023-05-02T06:19:31.841Z,8.94
2023-05-02T06:21:58.557Z,9.09
2023-05-02T06:24:25.196Z,9.22
2023-05-02T06:26:51.777Z,9.28
2023-05-02T06:29:18.180Z,9.30
2023-05-02T06:31:44.926Z,9.37
2023-05-02T06:34:11.562Z,9.43
2023-05-02T06:36:38.128Z,9.48
2023-05-02T06:39:04.636Z,9.51
2023-05-02T06:41:31.601Z,9.50
2023-05-02T06:43:58.127Z,9.47
2023-05-02T06:46:28.846Z,9.43
2023-05-02T06:48:55.273Z,9.43
2023-05-02T06:51:23.274Z,9.32
2023-05-02T06:53:49.932Z,9.21
2023-05-02T06:56:16.356Z,9.17
2023-05-02T06:58:42.822Z,9.14
2023-05-02T07:01:09.500Z,9.10
2023-05-02T07:03:36.005Z,9.07
2023-05-02T07:06:04.207Z,8.99
2023-05-02T07:08:31.087Z,8.94
2023-05-02T07:10:57.571Z,8.91
2023-05-02T07:13:24.009Z,8.87
2023-05-02T07:15:50.422Z,8.93
2023-05-02T07:18:16.861Z,8.90
2023-05-02T07:20:46.510Z,9.06
2023-05-02T07:23:13.004Z,9.20
2023-05-02T07:25:42.714Z,9.28
2023-05-02T07:28:12.791Z,9.11
2023-05-02T07:30:39.288Z,8.97
2023-05-02T07:33:05.982Z,8.95
2023-05-02T07:35:32.471Z,8.96
2023-05-02T07:37:59.197Z,9.01
2023-05-02T07:40:25.758Z,9.25
2023-05-02T07:42:52.312Z,9.47
2023-05-02T07:45:18.898Z,9.56
2023-05-02T07:47:46.987Z,9.56
2023-05-02T07:50:13.521Z,9.59
2023-05-02T07:52:40.045Z,9.63
2023-05-02T07:55:07.481Z,9.62
2023-05-02T07:57:34.207Z,9.59
2023-05-02T08:00:00.929Z,9.82
2023-05-02T08:02:28.877Z,9.98
2023-05-02T08:04:55.596Z,9.98
2023-05-02T08:07:22.147Z,10.09
2023-05-02T08:09:48.590Z,10.18
2023-05-02T08:12:14.993Z,9.96
2023-05-02T08:14:41.510Z,9.70
2023-05-02T08:17:07.979Z,9.56
2023-05-02T08:19:34.722Z,9.46
2023-05-02T08:22:02.488Z,9.36
2023-05-02T08:24:29.428Z,9.45
2023-05-02T08:26:55.946Z,9.59
2023-05-02T08:29:23.757Z,9.76
2023-05-02T08:31:50.335Z,9.93
2023-05-02T08:34:18.272Z,9.92
2023-05-02T08:36:44.915Z,9.94
2023-05-02T08:39:11.780Z,9.93
2023-05-02T08:41:38.625Z,9.96
2023-05-02T08:44:07.542Z,10.21
2023-05-02T08:46:36.390Z,10.37
2023-05-02T08:49:03.539Z,10.62
2023-05-02T08:51:35.154Z,10.64
2023-05-02T08:54:07.365Z,10.62
2023-05-02T08:56:34.153Z,10.67
2023-05-02T08:59:00.620Z,10.88
2023-05-02T09:01:31.074Z,10.91
2023-05-02T09:03:59.208Z,10.97
2023-05-02T09:06:27.251Z,11.28
2023-05-02T09:08:53.838Z,11.46
2023-05-02T09:11:21.650Z,11.51
2023-05-02T09:13:51.112Z,11.87
2023-05-02T09:16:20.009Z,11.95
2023-05-02T09:18:48.767Z,11.87
2023-05-02T09:21:21.236Z,11.99
2023-05-02T09:24:01.772Z,11.84
2023-05-02T09:26:33.290Z,11.83
2023-05-02T09:29:02.166Z,11.85
2023-05-02T09:34:13.174Z,11.96
2023-05-02T09:36:42.068Z,11.94
2023-05-02T09:39:11.465Z,11.85
2023-05-02T09:41:42.918Z,11.85
2023-05-02T09:44:18.417Z,11.80
2023-05-02T09:46:46.956Z,11.86
2023-05-02T09:49:18.557Z,12.34
2023-05-02T09:51:48.687Z,12.13
2023-05-02T09:54:38.414Z,11.81
2023-05-02T09:57:07.108Z,12.12
2023-05-02T09:59:33.994Z,12.06
2023-05-02T10:02:04.795Z,12.12
2023-05-02T10:04:33.420Z,12.34
2023-05-02T10:07:02.143Z,12.74
2023-05-02T10:09:32.386Z,13.26
2023-05-02T10:12:05.359Z,13.38
2023-05-02T10:14:41.797Z,13.36
2023-05-02T10:17:14.063Z,13.02
2023-05-02T10:20:05.512Z,12.51
2023-05-02T10:22:37.743Z,12.27
2023-05-02T10:25:05.157Z,12.30
2023-05-02T10:27:33.190Z,12.22
2023-05-02T10:30:10.489Z,11.81
2023-05-02T10:32:38.444Z,12.05
2023-05-02T10:35:06.453Z,12.82
2023-05-02T10:37:37.658Z,13.09
2023-05-02T10:40:06.215Z,12.85
2023-05-02T10:42:40.953Z,12.42
2023-05-02T10:45:33.775Z,12.58
2023-05-02T10:48:21.454Z,13.14
2023-05-02T10:51:04.081Z,12.99
2023-05-02T10:53:39.529Z,12.88
2023-05-02T10:56:13.191Z,12.84
2023-05-02T10:58:40.894Z,13.30
2023-05-02T11:01:29.056Z,13.72
2023-05-02T11:04:00.146Z,13.24
2023-05-02T11:06:33.494Z,12.93
2023-05-02T11:09:18.819Z,12.71
2023-05-02T11:11:45.841Z,12.86
2023-05-02T11:14:38.487Z,13.14
2023-05-02T11:17:04.973Z,13.12
2023-05-02T11:19:37.366Z,13.19
2023-05-02T11:22:24.031Z,13.53
2023-05-02T11:24:51.477Z,13.38
2023-05-02T11:27:30.595Z,13.63
2023-05-02T11:30:11.220Z,12.90
2023-05-02T11:32:44.143Z,12.96
2023-05-02T11:35:23.949Z,13.61
2023-05-02T11:37:54.133Z,14.13
2023-05-02T11:40:20.830Z,13.91
2023-05-02T11:42:47.690Z,14.01
2023-05-02T11:45:14.362Z,14.14
2023-05-02T11:47:42.230Z,13.77
2023-05-02T11:50:16.531Z,13.15
2023-05-02T11:52:44.593Z,13.49
2023-05-02T11:55:14.104Z,13.88
2023-05-02T11:57:41.103Z,14.11
2023-05-02T12:00:08.267Z,13.10
2023-05-02T12:02:42.789Z,12.73
2023-05-02T12:05:11.815Z,13.04
2023-05-02T12:07:47.483Z,13.33
2023-05-02T12:10:14.575Z,13.51
2023-05-02T12:12:43.513Z,13.39
2023-05-02T12:15:11.858Z,13.94
2023-05-02T12:17:53.052Z,14.14
2023-05-02T12:20:19.817Z,14.06
2023-05-02T12:22:47.663Z,13.54
2023-05-02T12:25:14.298Z,13.33
2023-05-02T12:27:40.997Z,13.17
2023-05-02T12:30:28.395Z,13.24
2023-05-02T12:32:59.380Z,14.31
2023-05-02T12:35:26.227Z,14.36
2023-05-02T12:37:54.386Z,13.99
2023-05-02T12:40:21.250Z,14.38
2023-05-02T12:43:07.313Z,15.26
2023-05-02T12:45:37.520Z,15.51
2023-05-02T12:48:20.476Z,15.40
2023-05-02T12:50:47.278Z,15.41
2023-05-02T12:53:52.615Z,15.85
2023-05-02T12:56:20.511Z,15.61
2023-05-02T12:58:48.965Z,15.79
2023-05-02T13:01:18.817Z,15.62
2023-05-02T13:03:51.258Z,15.21
2023-05-02T13:06:18.690Z,15.23
2023-05-02T13:08:45.442Z,15.33
2023-05-02T13:11:13.073Z,15.62
2023-05-02T13:13:39.618Z,15.54
2023-05-02T13:16:06.551Z,16.25
2023-05-02T13:18:33.443Z,16.62
2023-05-02T13:21:00.188Z,16.05
2023-05-02T13:23:26.856Z,15.95
2023-05-02T13:25:53.477Z,16.03
2023-05-02T13:28:20.062Z,16.54
2023-05-02T13:30:48.151Z,16.28
2023-05-02T13:33:17.588Z,16.75
2023-05-02T13:35:44.088Z,17.08
2023-05-02T13:38:10.989Z,17.44
2023-05-02T13:40:37.581Z,17.52
2023-05-02T13:43:04.217Z,17.14
2023-05-02T13:45:31.084Z,17.56
2023-05-02T13:47:58.357Z,17.96
2023-05-02T13:50:25.406Z,18.04
2023-05-02T13:52:52.428Z,17.87
2023-05-02T13:55:20.292Z,16.90
2023-05-02T13:57:47.476Z,16.81
2023-05-02T14:00:14.804Z,17.19
2023-05-02T14:03:10.387Z,17.25
2023-05-02T14:05:41.319Z,17.66
2023-05-02T14:08:08.694Z,17.76
2023-05-02T14:10:37.797Z,18.17
2023-05-02T14:13:05.025Z,18.49
2023-05-02T14:15:31.753Z,18.03
2023-05-02T14:17:58.787Z,17.01
2023-05-02T14:20:25.741Z,15.97
2023-05-02T14:22:53.655Z,15.23
2023-05-02T14:25:20.514Z,15.77
2023-05-02T14:27:47.460Z,16.32
2023-05-02T14:30:14.090Z,17.05
2023-05-02T14:32:40.640Z,16.95
2023-05-02T14:35:07.429Z,17.32
2023-05-02T14:37:33.981Z,17.30
2023-05-02T14:40:01.246Z,16.96
2023-05-02T14:42:33.597Z,17.26
2023-05-02T14:45:02.678Z,17.38
2023-05-02T14:47:32.692Z,18.11
2023-05-02T14:49:59.805Z,17.78
2023-05-02T14:52:27.023Z,17.65
2023-05-02T14:54:53.567Z,17.39
2023-05-02T14:57:20.701Z,17.59
2023-05-02T14:59:47.235Z,18.02
2023-05-02T15:02:14.010Z,17.97
2023-05-02T15:04:40.961Z,18.05
2023-05-02T15:07:07.976Z,17.91
2023-05-02T15:09:34.650Z,17.70
2023-05-02T15:12:02.450Z,17.90
2023-05-02T15:14:29.075Z,18.16
2023-05-02T15:16:55.799Z,18.26
2023-05-02T15:19:25.298Z,18.75
2023-05-02T15:22:14.716Z,19.14
2023-05-02T15:24:41.243Z,18.98
2023-05-02T15:27:09.413Z,19.36
2023-05-02T15:29:36.170Z,18.72
2023-05-02T15:32:04.856Z,17.06
2023-05-02T15:34:31.366Z,15.67
2023-05-02T15:36:59.742Z,14.77
2023-05-02T15:39:27.986Z,14.34
2023-05-02T15:41:58.232Z,14.01
2023-05-02T15:44:26.211Z,13.97
2023-05-02T15:46:55.929Z,13.76
2023-05-02T15:49:24.491Z,13.54
2023-05-02T15:51:57.831Z,13.11
2023-05-02T15:54:24.352Z,12.91
2023-05-02T15:56:50.812Z,12.84
2023-05-02T15:59:17.366Z,12.80
2023-05-02T16:01:44.000Z,12.69
2023-05-02T16:04:13.021Z,12.58
2023-05-02T16:06:42.584Z,12.50
2023-05-02T16:09:10.060Z,12.49
2023-05-02T16:11:37.334Z,12.32
2023-05-02T16:14:04.553Z,12.29
2023-05-02T16:16:32.177Z,12.24
2023-05-02T16:18:58.729Z,12.07
2023-05-02T16:21:25.792Z,11.86
2023-05-02T16:23:52.289Z,11.84
2023-05-02T16:26:20.280Z,11.90
2023-05-02T16:28:46.730Z,11.78
2023-05-02T16:31:14.914Z,11.56
2023-05-02T16:33:42.829Z,11.47
2023-05-02T16:36:10.135Z,11.40
2023-05-02T16:38:36.683Z,11.35
2023-05-02T16:41:05.139Z,11.28
2023-05-02T16:43:31.572Z,11.25
2023-05-02T16:46:06.042Z,11.28
2023-05-02T16:48:36.818Z,11.09
2023-05-02T16:51:04.341Z,11.11
2023-05-02T16:53:31.560Z,11.15
2023-05-02T16:55:59.409Z,11.05
2023-05-02T16:58:30.000Z,11.04
2023-05-02T17:00:56.799Z,11.09
2023-05-02T17:03:23.385Z,11.06
2023-05-02T17:05:49.913Z,11.12
2023-05-02T17:08:16.976Z,11.12
2023-05-02T17:10:48.533Z,10.95
2023-05-02T17:13:14.961Z,11.02
2023-05-02T17:15:41.984Z,11.07
2023-05-02T17:18:08.489Z,11.21
2023-05-02T17:20:36.248Z,11.29
2023-05-02T17:23:02.949Z,11.36
2023-05-02T17:25:30.464Z,11.36
2023-05-02T17:27:58.442Z,11.35
2023-05-02T17:30:25.193Z,11.26
2023-05-02T17:32:51.827Z,11.26
2023-05-02T17:35:18.361Z,11.22
2023-05-02T17:37:44.804Z,11.23
2023-05-02T17:40:12.278Z,11.11
2023-05-02T17:42:39.047Z,11.05
2023-05-02T17:45:06.833Z,10.85
2023-05-02T17:47:33.282Z,10.74
2023-05-02T17:50:02.665Z,10.58
2023-05-02T17:52:29.391Z,10.41
2023-05-02T17:54:55.814Z,10.34
2023-05-02T17:57:22.639Z,10.22
2023-05-02T17:59:50.601Z,10.15
2023-05-02T18:02:18.060Z,10.08
2023-05-02T18:04:45.536Z,10.07
2023-05-02T18:07:12.048Z,9.99
2023-05-02T18:09:38.583Z,9.88
2023-05-02T18:12:06.876Z,9.77
2023-05-02T18:14:33.611Z,9.67
2023-05-02T18:17:02.806Z,9.58
2023-05-02T18:19:29.345Z,9.47
2023-05-02T18:21:56.060Z,9.38
2023-05-02T18:24:22.887Z,9.33
2023-05-02T18:26:50.141Z,9.28
2023-05-02T18:29:16.918Z,9.20
2023-05-02T18:31:46.169Z,9.08
2023-05-02T18:34:12.630Z,9.01
2023-05-02T18:36:39.551Z,8.92
2023-05-02T18:39:06.182Z,8.83
2023-05-02T18:41:32.609Z,8.82
2023-05-02T18:44:00.729Z,8.75
2023-05-02T18:46:27.471Z,8.67
2023-05-02T18:48:57.103Z,8.58
2023-05-02T18:51:24.358Z,8.44
2023-05-02T18:53:51.553Z,8.34
2023-05-02T18:56:18.019Z,8.27
2023-05-02T18:58:44.563Z,8.24
2023-05-02T19:01:20.165Z,8.15
2023-05-02T19:03:46.953Z,8.13
2023-05-02T19:06:14.721Z,8.10
2023-05-02T19:08:42.369Z,8.00
2023-05-02T19:11:09.292Z,7.91
2023-05-02T19:13:35.914Z,7.85
2023-05-02T19:16:02.407Z,7.81
2023-05-02T19:18:28.911Z,7.76
2023-05-02T19:20:55.329Z,7.68
2023-05-02T19:23:21.684Z,7.62
2023-05-02T19:25:48.288Z,7.55
2023-05-02T19:28:16.852Z,7.51
2023-05-02T19:30:44.452Z,7.45
2023-05-02T19:33:11.495Z,7.44
2023-05-02T19:35:38.483Z,7.42
2023-05-02T19:38:04.988Z,7.38
2023-05-02T19:40:31.464Z,7.34
2023-05-02T19:42:58.234Z,7.28
2023-05-02T19:45:24.734Z,7.25
2023-05-02T19:47:51.272Z,7.25
2023-05-02T19:50:17.782Z,7.21
2023-05-02T19:52:45.822Z,7.21
2023-05-02T19:55:12.380Z,7.20
2023-05-02T19:57:40.456Z,7.21
2023-05-02T20:00:07.483Z,7.18
2023-05-02T20:02:34.306Z,7.16
2023-05-02T20:05:01.280Z,7.10
2023-05-02T20:07:27.924Z,7.07
2023-05-02T20:09:55.462Z,7.02
2023-05-02T20:12:21.961Z,6.99
2023-05-02T20:14:48.752Z,6.92
2023-05-02T20:17:15.313Z,6.85
2023-05-02T20:19:41.816Z,6.85
2023-05-02T20:22:08.338Z,6.85
2023-05-02T20:24:38.114Z,6.86
2023-05-02T20:27:07.409Z,6.79
2023-05-02T20:29:33.931Z,6.77
2023-05-02T20:32:00.456Z,6.72
2023-05-02T20:34:26.914Z,6.67
2023-05-02T20:36:53.301Z,6.64
2023-05-02T20:39:22.989Z,6.60
2023-05-02T20:41:50.086Z,6.61
2023-05-02T20:44:22.577Z,6.58
2023-05-02T20:46:49.343Z,6.59
2023-05-02T20:49:16.308Z,6.66
2023-05-02T20:51:42.753Z,6.71
2023-05-02T20:54:09.120Z,6.80
2023-05-02T20:56:35.652Z,6.81
2023-05-02T20:59:02.100Z,6.80
2023-05-02T21:01:29.874Z,6.73
2023-05-02T21:03:57.311Z,6.65
2023-05-02T21:06:24.082Z,6.57
2023-05-02T21:08:51.167Z,6.51
2023-05-02T21:11:17.619Z,6.47
2023-05-02T21:13:44.070Z,6.41
2023-05-02T21:16:18.128Z,6.38
2023-05-02T21:18:45.471Z,6.32
2023-05-02T21:21:11.976Z,6.31
2023-05-02T21:23:38.510Z,6.29
2023-05-02T21:26:05.341Z,6.19
2023-05-02T21:28:31.939Z,6.12
2023-05-02T21:30:58.424Z,6.14
2023-05-02T21:33:24.861Z,6.10
2023-05-02T21:35:57.949Z,6.02
2023-05-02T21:38:25.618Z,5.97
2023-05-02T21:40:52.999Z,5.98
2023-05-02T21:43:19.685Z,5.93
2023-05-02T21:45:47.655Z,5.82
2023-05-02T21:48:15.388Z,5.73
2023-05-02T21:50:43.158Z,5.62
2023-05-02T21:53:13.619Z,5.60
2023-05-02T21:55:41.300Z,5.49
2023-05-02T21:58:12.232Z,5.36
2023-05-02T22:00:40.164Z,5.27
2023-05-02T22:03:08.970Z,5.23
2023-05-02T22:05:36.001Z,5.26
2023-05-02T22:08:03.147Z,5.26
2023-05-02T22:10:30.163Z,5.24
2023-05-02T22:12:56.662Z,5.17
2023-05-02T22:15:23.170Z,5.09
2023-05-02T22:17:50.586Z,5.05
2023-05-02T22:20:17.156Z,5.01
2023-05-02T22:22:43.574Z,5.02
2023-05-02T22:25:10.315Z,5.01
2023-05-02T22:27:39.228Z,5.01
2023-05-02T22:30:08.033Z,4.99
2023-05-02T22:32:34.596Z,4.96
2023-05-02T22:35:04.594Z,4.95
2023-05-02T22:37:31.137Z,4.91
2023-05-02T22:39:57.593Z,4.88
2023-05-02T22:42:24.575Z,4.83
2023-05-02T22:44:54.625Z,4.79
2023-05-02T22:47:25.158Z,4.80
2023-05-02T22:49:52.615Z,4.79
2023-05-02T22:52:20.978Z,4.77
2023-05-02T22:54:48.495Z,4.73
2023-05-02T22:57:15.022Z,4.70
2023-05-02T22:59:44.360Z,4.66
2023-05-02T23:02:13.958Z,4.65
2023-05-02T23:04:41.495Z,4.61
2023-05-02T23:07:08.004Z,4.50
2023-05-02T23:09:34.469Z,4.47
2023-05-02T23:12:02.655Z,4.49
2023-05-02T23:14:29.573Z,4.48
2023-05-02T23:16:56.545Z,4.49
2023-05-02T23:19:23.084Z,4.50
2023-05-02T23:21:49.481Z,4.52
2023-05-02T23:24:16.024Z,4.50
2023-05-02T23:26:42.432Z,4.50
2023-05-02T23:29:08.909Z,4.51
2023-05-02T23:31:35.601Z,4.53
2023-05-02T23:34:02.172Z,4.49
2023-05-02T23:36:28.635Z,4.46
2023-05-02T23:38:55.366Z,4.41
2023-05-02T23:41:22.362Z,4.37
2023-05-02T23:43:49.119Z,4.30
2023-05-02T23:46:15.912Z,4.26
2023-05-02T23:48:42.439Z,4.26
2023-05-02T23:51:08.911Z,4.24
2023-05-02T23:53:35.584Z,4.26
2023-05-02T23:56:02.070Z,4.20
2023-05-02T23:58:28.526Z,4.20
